sensor_id;sensor_type;location;lat;lon;timestamp;P1;durP1;ratioP1;P2;durP2;ratioP2
18905;SDS011;9585;51.018;4.282;2023-02-01T00:01:47;15.65;;;6.47;;
18905;SDS011;9585;51.018;4.282;2023-02-01T00:04:14;19.38;;;6.50;;
18905;SDS011;9585;51.018;4.282;2023-02-01T00:06:42;16.75;;;5.97;;
18905;SDS011;9585;51.018;4.282;2023-02-01T00:09:09;13.55;;;6.00;;
18905;SDS011;9585;51.018;4.282;2023-02-01T00:11:36;14.05;;;5.22;;
18905;SDS011;9585;51.018;4.282;2023-02-01T00:14:08;17.52;;;5.88;;
18905;SDS011;9585;51.018;4.282;2023-02-01T00:16:35;20.60;;;6.60;;
18905;SDS011;9585;51.018;4.282;2023-02-01T00:19:03;19.85;;;5.82;;
18905;SDS011;9585;51.018;4.282;2023-02-01T00:21:32;16.63;;;6.22;;
18905;SDS011;9585;51.018;4.282;2023-02-01T00:24:00;16.67;;;6.03;;
18905;SDS011;9585;51.018;4.282;2023-02-01T00:26:30;16.45;;;5.30;;
18905;SDS011;9585;51.018;4.282;2023-02-01T00:28:59;17.60;;;5.35;;
18905;SDS011;9585;51.018;4.282;2023-02-01T00:31:29;20.63;;;5.05;;
18905;SDS011;9585;51.018;4.282;2023-02-01T00:33:56;19.02;;;7.45;;
18905;SDS011;9585;51.018;4.282;2023-02-01T00:36:23;12.88;;;4.70;;
18905;SDS011;9585;51.018;4.282;2023-02-01T00:38:51;11.55;;;4.75;;
18905;SDS011;9585;51.018;4.282;2023-02-01T00:41:18;15.57;;;5.07;;
18905;SDS011;9585;51.018;4.282;2023-02-01T00:43:47;14.38;;;5.20;;
18905;SDS011;9585;51.018;4.282;2023-02-01T00:46:16;17.27;;;5.00;;
18905;SDS011;9585;51.018;4.282;2023-02-01T00:48:46;17.77;;;5.22;;
18905;SDS011;9585;51.018;4.282;2023-02-01T00:51:14;15.57;;;4.85;;
18905;SDS011;9585;51.018;4.282;2023-02-01T00:53:43;15.65;;;4.53;;
18905;SDS011;9585;51.018;4.282;2023-02-01T00:56:12;16.35;;;4.18;;
18905;SDS011;9585;51.018;4.282;2023-02-01T00:58:40;13.38;;;4.75;;
18905;SDS011;9585;51.018;4.282;2023-02-01T01:01:08;16.20;;;4.90;;
18905;SDS011;9585;51.018;4.282;2023-02-01T01:03:38;14.60;;;4.32;;
18905;SDS011;9585;51.018;4.282;2023-02-01T01:06:08;15.23;;;4.03;;
18905;SDS011;9585;51.018;4.282;2023-02-01T01:08:38;11.63;;;3.88;;
18905;SDS011;9585;51.018;4.282;2023-02-01T01:11:07;11.98;;;3.60;;
18905;SDS011;9585;51.018;4.282;2023-02-01T01:13:35;12.88;;;3.75;;
18905;SDS011;9585;51.018;4.282;2023-02-01T01:16:03;15.50;;;3.92;;
18905;SDS011;9585;51.018;4.282;2023-02-01T01:18:32;15.88;;;4.07;;
18905;SDS011;9585;51.018;4.282;2023-02-01T01:20:59;13.82;;;4.53;;
18905;SDS011;9585;51.018;4.282;2023-02-01T01:23:29;16.90;;;4.35;;
18905;SDS011;9585;51.018;4.282;2023-02-01T01:25:57;11.52;;;3.85;;
18905;SDS011;9585;51.018;4.282;2023-02-01T01:28:25;14.23;;;3.55;;
18905;SDS011;9585;51.018;4.282;2023-02-01T01:30:52;10.73;;;3.38;;
18905;SDS011;9585;51.018;4.282;2023-02-01T01:33:20;15.88;;;3.60;;
18905;SDS011;9585;51.018;4.282;2023-02-01T01:35:47;14.40;;;3.55;;
18905;SDS011;9585;51.018;4.282;2023-02-01T01:38:14;11.75;;;3.47;;
18905;SDS011;9585;51.018;4.282;2023-02-01T01:40:45;11.93;;;3.25;;
18905;SDS011;9585;51.018;4.282;2023-02-01T01:43:15;15.60;;;3.63;;
18905;SDS011;9585;51.018;4.282;2023-02-01T01:45:44;9.82;;;3.33;;
18905;SDS011;9585;51.018;4.282;2023-02-01T01:48:13;13.10;;;3.67;;
18905;SDS011;9585;51.018;4.282;2023-02-01T01:50:45;12.87;;;3.00;;
18905;SDS011;9585;51.018;4.282;2023-02-01T01:53:17;15.73;;;3.45;;
18905;SDS011;9585;51.018;4.282;2023-02-01T01:55:53;15.75;;;3.80;;
18905;SDS011;9585;51.018;4.282;2023-02-01T01:58:25;17.27;;;3.22;;
18905;SDS011;9585;51.018;4.282;2023-02-01T02:00:55;15.88;;;3.83;;
18905;SDS011;9585;51.018;4.282;2023-02-01T02:03:24;15.00;;;3.78;;
18905;SDS011;9585;51.018;4.282;2023-02-01T02:05:59;14.35;;;3.67;;
18905;SDS011;9585;51.018;4.282;2023-02-01T02:08:29;12.60;;;3.28;;
18905;SDS011;9585;51.018;4.282;2023-02-01T02:10:58;13.85;;;3.30;;
18905;SDS011;9585;51.018;4.282;2023-02-01T02:13:27;18.77;;;4.32;;
18905;SDS011;9585;51.018;4.282;2023-02-01T02:16:00;14.32;;;3.58;;
18905;SDS011;9585;51.018;4.282;2023-02-01T02:18:47;12.55;;;3.60;;
18905;SDS011;9585;51.018;4.282;2023-02-01T02:21:27;12.60;;;3.07;;
18905;SDS011;9585;51.018;4.282;2023-02-01T02:27:19;15.67;;;3.40;;
18905;SDS011;9585;51.018;4.282;2023-02-01T02:30:02;13.93;;;3.23;;
18905;SDS011;9585;51.018;4.282;2023-02-01T02:35:54;13.00;;;3.07;;
18905;SDS011;9585;51.018;4.282;2023-02-01T02:38:28;10.63;;;3.20;;
18905;SDS011;9585;51.018;4.282;2023-02-01T02:41:01;16.03;;;3.77;;
18905;SDS011;9585;51.018;4.282;2023-02-01T02:43:35;12.53;;;3.30;;
18905;SDS011;9585;51.018;4.282;2023-02-01T02:46:43;10.63;;;3.13;;
18905;SDS011;9585;51.018;4.282;2023-02-01T02:49:34;11.18;;;2.67;;
18905;SDS011;9585;51.018;4.282;2023-02-01T02:52:08;10.37;;;3.13;;
18905;SDS011;9585;51.018;4.282;2023-02-01T02:54:56;12.87;;;3.00;;
18905;SDS011;9585;51.018;4.282;2023-02-01T02:57:28;11.60;;;3.45;;
18905;SDS011;9585;51.018;4.282;2023-02-01T03:00:17;10.63;;;3.20;;
18905;SDS011;9585;51.018;4.282;2023-02-01T03:03:12;17.75;;;3.70;;
18905;SDS011;9585;51.018;4.282;2023-02-01T03:05:59;11.90;;;3.40;;
18905;SDS011;9585;51.018;4.282;2023-02-01T03:08:27;14.47;;;4.77;;
18905;SDS011;9585;51.018;4.282;2023-02-01T03:10:56;10.00;;;3.10;;
18905;SDS011;9585;51.018;4.282;2023-02-01T03:13:30;14.60;;;3.23;;
18905;SDS011;9585;51.018;4.282;2023-02-01T03:16:06;11.60;;;3.63;;
18905;SDS011;9585;51.018;4.282;2023-02-01T03:18:40;17.93;;;3.60;;
18905;SDS011;9585;51.018;4.282;2023-02-01T03:21:16;11.27;;;3.53;;
18905;SDS011;9585;51.018;4.282;2023-02-01T03:23:46;16.00;;;3.50;;
18905;SDS011;9585;51.018;4.282;2023-02-01T03:26:16;15.97;;;3.57;;
18905;SDS011;9585;51.018;4.282;2023-02-01T03:28:48;13.30;;;3.33;;
18905;SDS011;9585;51.018;4.282;2023-02-01T03:31:19;13.47;;;3.17;;
18905;SDS011;9585;51.018;4.282;2023-02-01T03:33:47;15.93;;;3.63;;
18905;SDS011;9585;51.018;4.282;2023-02-01T03:36:17;19.02;;;4.38;;
18905;SDS011;9585;51.018;4.282;2023-02-01T03:38:52;13.20;;;3.67;;
18905;SDS011;9585;51.018;4.282;2023-02-01T03:41:27;16.40;;;3.60;;
18905;SDS011;9585;51.018;4.282;2023-02-01T03:44:01;11.30;;;3.30;;
18905;SDS011;9585;51.018;4.282;2023-02-01T03:46:35;14.50;;;4.03;;
18905;SDS011;9585;51.018;4.282;2023-02-01T03:49:07;14.87;;;3.17;;
18905;SDS011;9585;51.018;4.282;2023-02-01T03:51:40;13.25;;;4.30;;
18905;SDS011;9585;51.018;4.282;2023-02-01T03:54:09;13.30;;;3.43;;
18905;SDS011;9585;51.018;4.282;2023-02-01T03:56:40;17.65;;;3.50;;
18905;SDS011;9585;51.018;4.282;2023-02-01T03:59:10;17.30;;;3.27;;
18905;SDS011;9585;51.018;4.282;2023-02-01T04:01:38;14.18;;;3.45;;
18905;SDS011;9585;51.018;4.282;2023-02-01T04:04:06;13.23;;;3.23;;
18905;SDS011;9585;51.018;4.282;2023-02-01T04:06:34;14.03;;;3.27;;
18905;SDS011;9585;51.018;4.282;2023-02-01T04:09:03;14.77;;;3.60;;
18905;SDS011;9585;51.018;4.282;2023-02-01T04:11:30;14.13;;;3.00;;
18905;SDS011;9585;51.018;4.282;2023-02-01T04:13:57;16.40;;;3.30;;
18905;SDS011;9585;51.018;4.282;2023-02-01T04:16:29;12.40;;;2.90;;
18905;SDS011;9585;51.018;4.282;2023-02-01T04:18:57;12.53;;;3.23;;
18905;SDS011;9585;51.018;4.282;2023-02-01T04:21:26;16.13;;;3.10;;
18905;SDS011;9585;51.018;4.282;2023-02-01T04:23:55;12.07;;;3.10;;
18905;SDS011;9585;51.018;4.282;2023-02-01T04:26:27;17.90;;;3.53;;
18905;SDS011;9585;51.018;4.282;2023-02-01T04:28:54;17.58;;;3.47;;
18905;SDS011;9585;51.018;4.282;2023-02-01T04:31:25;16.60;;;3.07;;
18905;SDS011;9585;51.018;4.282;2023-02-01T04:33:55;14.23;;;3.00;;
18905;SDS011;9585;51.018;4.282;2023-02-01T04:36:24;13.13;;;3.53;;
18905;SDS011;9585;51.018;4.282;2023-02-01T04:38:52;15.47;;;3.67;;
18905;SDS011;9585;51.018;4.282;2023-02-01T04:41:20;11.20;;;2.77;;
18905;SDS011;9585;51.018;4.282;2023-02-01T04:43:51;14.48;;;3.72;;
18905;SDS011;9585;51.018;4.282;2023-02-01T04:46:21;12.73;;;2.73;;
18905;SDS011;9585;51.018;4.282;2023-02-01T04:48:49;13.07;;;2.97;;
18905;SDS011;9585;51.018;4.282;2023-02-01T04:51:28;11.93;;;3.22;;
18905;SDS011;9585;51.018;4.282;2023-02-01T04:53:58;17.73;;;3.70;;
18905;SDS011;9585;51.018;4.282;2023-02-01T04:56:32;14.33;;;3.10;;
18905;SDS011;9585;51.018;4.282;2023-02-01T04:59:01;19.20;;;3.27;;
18905;SDS011;9585;51.018;4.282;2023-02-01T05:01:31;14.37;;;3.73;;
18905;SDS011;9585;51.018;4.282;2023-02-01T05:03:59;14.73;;;3.37;;
18905;SDS011;9585;51.018;4.282;2023-02-01T05:06:27;18.17;;;3.50;;
18905;SDS011;9585;51.018;4.282;2023-02-01T05:08:54;14.50;;;3.20;;
18905;SDS011;9585;51.018;4.282;2023-02-01T05:11:24;14.90;;;3.67;;
18905;SDS011;9585;51.018;4.282;2023-02-01T05:14:15;17.53;;;3.70;;
18905;SDS011;9585;51.018;4.282;2023-02-01T05:16:43;18.13;;;3.70;;
18905;SDS011;9585;51.018;4.282;2023-02-01T05:19:11;16.50;;;4.00;;
18905;SDS011;9585;51.018;4.282;2023-02-01T05:21:44;12.00;;;3.27;;
18905;SDS011;9585;51.018;4.282;2023-02-01T05:24:12;16.17;;;3.90;;
18905;SDS011;9585;51.018;4.282;2023-02-01T05:26:52;14.30;;;3.53;;
18905;SDS011;9585;51.018;4.282;2023-02-01T05:29:21;17.17;;;3.43;;
18905;SDS011;9585;51.018;4.282;2023-02-01T05:31:50;15.60;;;3.50;;
18905;SDS011;9585;51.018;4.282;2023-02-01T05:34:17;14.87;;;3.23;;
18905;SDS011;9585;51.018;4.282;2023-02-01T05:36:44;17.87;;;3.63;;
18905;SDS011;9585;51.018;4.282;2023-02-01T05:39:12;15.47;;;3.73;;
18905;SDS011;9585;51.018;4.282;2023-02-01T05:41:39;17.73;;;3.60;;
18905;SDS011;9585;51.018;4.282;2023-02-01T05:44:06;15.43;;;3.17;;
18905;SDS011;9585;51.018;4.282;2023-02-01T05:46:36;13.10;;;3.27;;
18905;SDS011;9585;51.018;4.282;2023-02-01T05:49:05;15.70;;;3.60;;
18905;SDS011;9585;51.018;4.282;2023-02-01T05:51:35;15.97;;;3.57;;
18905;SDS011;9585;51.018;4.282;2023-02-01T05:54:05;22.70;;;3.83;;
18905;SDS011;9585;51.018;4.282;2023-02-01T05:56:35;19.10;;;3.50;;
18905;SDS011;9585;51.018;4.282;2023-02-01T05:59:03;17.60;;;3.57;;
18905;SDS011;9585;51.018;4.282;2023-02-01T06:01:31;16.13;;;3.13;;
18905;SDS011;9585;51.018;4.282;2023-02-01T06:04:01;13.50;;;3.20;;
18905;SDS011;9585;51.018;4.282;2023-02-01T06:06:30;20.60;;;3.80;;
18905;SDS011;9585;51.018;4.282;2023-02-01T06:08:58;17.07;;;3.60;;
18905;SDS011;9585;51.018;4.282;2023-02-01T06:11:25;12.10;;;3.50;;
18905;SDS011;9585;51.018;4.282;2023-02-01T06:13:53;11.87;;;3.50;;
18905;SDS011;9585;51.018;4.282;2023-02-01T06:16:29;11.30;;;3.27;;
18905;SDS011;9585;51.018;4.282;2023-02-01T06:19:02;16.80;;;3.80;;
18905;SDS011;9585;51.018;4.282;2023-02-01T06:21:32;11.23;;;3.50;;
18905;SDS011;9585;51.018;4.282;2023-02-01T06:24:04;17.93;;;3.70;;
18905;SDS011;9585;51.018;4.282;2023-02-01T06:26:35;16.00;;;3.50;;
18905;SDS011;9585;51.018;4.282;2023-02-01T06:29:02;14.40;;;3.73;;
18905;SDS011;9585;51.018;4.282;2023-02-01T06:31:31;18.87;;;3.97;;
18905;SDS011;9585;51.018;4.282;2023-02-01T06:34:02;20.73;;;3.80;;
18905;SDS011;9585;51.018;4.282;2023-02-01T06:36:30;15.23;;;3.20;;
18905;SDS011;9585;51.018;4.282;2023-02-01T06:39:00;14.40;;;3.53;;
18905;SDS011;9585;51.018;4.282;2023-02-01T06:41:30;24.03;;;3.83;;
18905;SDS011;9585;51.018;4.282;2023-02-01T06:44:09;14.83;;;3.43;;
18905;SDS011;9585;51.018;4.282;2023-02-01T06:46:36;15.67;;;3.33;;
18905;SDS011;9585;51.018;4.282;2023-02-01T06:49:09;17.83;;;3.70;;
18905;SDS011;9585;51.018;4.282;2023-02-01T06:51:39;11.83;;;3.40;;
18905;SDS011;9585;51.018;4.282;2023-02-01T06:54:13;17.60;;;3.40;;
18905;SDS011;9585;51.018;4.282;2023-02-01T06:56:41;18.67;;;4.37;;
18905;SDS011;9585;51.018;4.282;2023-02-01T06:59:14;14.03;;;3.27;;
18905;SDS011;9585;51.018;4.282;2023-02-01T07:04:33;14.33;;;3.60;;
18905;SDS011;9585;51.018;4.282;2023-02-01T07:07:03;16.97;;;3.50;;
18905;SDS011;9585;51.018;4.282;2023-02-01T07:09:35;16.20;;;3.67;;
18905;SDS011;9585;51.018;4.282;2023-02-01T07:12:03;17.63;;;3.60;;
18905;SDS011;9585;51.018;4.282;2023-02-01T07:14:36;18.03;;;4.60;;
18905;SDS011;9585;51.018;4.282;2023-02-01T07:17:07;14.03;;;3.13;;
18905;SDS011;9585;51.018;4.282;2023-02-01T07:19:41;17.43;;;3.63;;
18905;SDS011;9585;51.018;4.282;2023-02-01T07:22:08;15.10;;;3.60;;
18905;SDS011;9585;51.018;4.282;2023-02-01T07:24:41;15.57;;;3.37;;
18905;SDS011;9585;51.018;4.282;2023-02-01T07:27:11;10.10;;;3.50;;
18905;SDS011;9585;51.018;4.282;2023-02-01T07:29:40;18.83;;;3.40;;
18905;SDS011;9585;51.018;4.282;2023-02-01T07:32:08;15.93;;;3.77;;
18905;SDS011;9585;51.018;4.282;2023-02-01T07:34:38;16.93;;;3.30;;
18905;SDS011;9585;51.018;4.282;2023-02-01T07:39:56;15.90;;;4.00;;
18905;SDS011;9585;51.018;4.282;2023-02-01T07:42:24;13.13;;;3.33;;
18905;SDS011;9585;51.018;4.282;2023-02-01T07:44:54;15.33;;;4.27;;
18905;SDS011;9585;51.018;4.282;2023-02-01T07:47:22;17.73;;;4.53;;
18905;SDS011;9585;51.018;4.282;2023-02-01T07:49:53;12.90;;;3.53;;
18905;SDS011;9585;51.018;4.282;2023-02-01T07:52:28;13.93;;;3.83;;
18905;SDS011;9585;51.018;4.282;2023-02-01T07:54:56;17.83;;;3.77;;
18905;SDS011;9585;51.018;4.282;2023-02-01T07:57:26;15.70;;;4.07;;
18905;SDS011;9585;51.018;4.282;2023-02-01T07:59:56;14.50;;;3.53;;
18905;SDS011;9585;51.018;4.282;2023-02-01T08:02:45;14.27;;;4.23;;
18905;SDS011;9585;51.018;4.282;2023-02-01T08:05:13;14.47;;;3.13;;
18905;SDS011;9585;51.018;4.282;2023-02-01T08:07:44;16.43;;;3.83;;
18905;SDS011;9585;51.018;4.282;2023-02-01T08:10:16;13.90;;;3.42;;
18905;SDS011;9585;51.018;4.282;2023-02-01T08:12:57;15.60;;;3.23;;
18905;SDS011;9585;51.018;4.282;2023-02-01T08:15:35;10.43;;;3.22;;
18905;SDS011;9585;51.018;4.282;2023-02-01T08:18:06;14.73;;;3.70;;
18905;SDS011;9585;51.018;4.282;2023-02-01T08:20:43;11.90;;;3.40;;
18905;SDS011;9585;51.018;4.282;2023-02-01T08:23:25;16.43;;;4.57;;
18905;SDS011;9585;51.018;4.282;2023-02-01T08:25:52;19.37;;;3.63;;
18905;SDS011;9585;51.018;4.282;2023-02-01T08:28:22;14.13;;;3.27;;
18905;SDS011;9585;51.018;4.282;2023-02-01T08:30:55;14.50;;;3.50;;
18905;SDS011;9585;51.018;4.282;2023-02-01T08:33:24;14.57;;;3.60;;
18905;SDS011;9585;51.018;4.282;2023-02-01T08:35:54;16.00;;;3.90;;
18905;SDS011;9585;51.018;4.282;2023-02-01T08:38:28;12.83;;;3.43;;
18905;SDS011;9585;51.018;4.282;2023-02-01T08:41:04;16.92;;;4.00;;
18905;SDS011;9585;51.018;4.282;2023-02-01T08:43:36;13.25;;;4.15;;
18905;SDS011;9585;51.018;4.282;2023-02-01T08:46:11;10.57;;;3.40;;
18905;SDS011;9585;51.018;4.282;2023-02-01T08:48:45;12.77;;;3.25;;
18905;SDS011;9585;51.018;4.282;2023-02-01T08:51:16;19.23;;;3.93;;
18905;SDS011;9585;51.018;4.282;2023-02-01T08:53:47;14.83;;;3.47;;
18905;SDS011;9585;51.018;4.282;2023-02-01T08:56:15;16.45;;;4.07;;
18905;SDS011;9585;51.018;4.282;2023-02-01T08:58:44;13.00;;;3.55;;
18905;SDS011;9585;51.018;4.282;2023-02-01T09:01:13;10.93;;;3.60;;
18905;SDS011;9585;51.018;4.282;2023-02-01T09:03:48;14.43;;;3.33;;
18905;SDS011;9585;51.018;4.282;2023-02-01T09:06:18;14.45;;;3.63;;
18905;SDS011;9585;51.018;4.282;2023-02-01T09:08:52;14.07;;;3.30;;
18905;SDS011;9585;51.018;4.282;2023-02-01T09:11:25;18.58;;;4.32;;
18905;SDS011;9585;51.018;4.282;2023-02-01T09:13:59;14.25;;;3.63;;
18905;SDS011;9585;51.018;4.282;2023-02-01T09:16:26;13.32;;;3.85;;
18905;SDS011;9585;51.018;4.282;2023-02-01T09:18:54;14.02;;;3.90;;
18905;SDS011;9585;51.018;4.282;2023-02-01T09:21:21;16.90;;;5.75;;
18905;SDS011;9585;51.018;4.282;2023-02-01T09:23:54;14.15;;;3.38;;
18905;SDS011;9585;51.018;4.282;2023-02-01T09:26:21;12.70;;;3.45;;
18905;SDS011;9585;51.018;4.282;2023-02-01T09:28:56;13.10;;;3.72;;
18905;SDS011;9585;51.018;4.282;2023-02-01T09:31:40;10.80;;;3.15;;
18905;SDS011;9585;51.018;4.282;2023-02-01T09:34:22;9.23;;;3.00;;
18905;SDS011;9585;51.018;4.282;2023-02-01T09:36:55;13.90;;;3.75;;
18905;SDS011;9585;51.018;4.282;2023-02-01T09:39:24;11.73;;;2.85;;
18905;SDS011;9585;51.018;4.282;2023-02-01T09:41:54;13.40;;;3.03;;
18905;SDS011;9585;51.018;4.282;2023-02-01T09:44:34;15.48;;;3.28;;
18905;SDS011;9585;51.018;4.282;2023-02-01T09:47:12;11.48;;;2.80;;
18905;SDS011;9585;51.018;4.282;2023-02-01T09:49:48;13.95;;;3.25;;
18905;SDS011;9585;51.018;4.282;2023-02-01T09:52:26;19.17;;;3.60;;
18905;SDS011;9585;51.018;4.282;2023-02-01T09:55:00;14.70;;;3.55;;
18905;SDS011;9585;51.018;4.282;2023-02-01T09:57:41;11.80;;;3.03;;
18905;SDS011;9585;51.018;4.282;2023-02-01T10:00:17;9.90;;;3.20;;
18905;SDS011;9585;51.018;4.282;2023-02-01T10:02:49;10.02;;;2.90;;
18905;SDS011;9585;51.018;4.282;2023-02-01T10:05:18;14.68;;;3.28;;
18905;SDS011;9585;51.018;4.282;2023-02-01T10:07:55;18.88;;;4.13;;
18905;SDS011;9585;51.018;4.282;2023-02-01T10:10:30;9.98;;;2.78;;
18905;SDS011;9585;51.018;4.282;2023-02-01T10:13:17;14.07;;;3.40;;
18905;SDS011;9585;51.018;4.282;2023-02-01T10:16:02;14.85;;;3.10;;
18905;SDS011;9585;51.018;4.282;2023-02-01T10:18:47;10.02;;;2.78;;
18905;SDS011;9585;51.018;4.282;2023-02-01T10:21:42;10.45;;;2.95;;
18905;SDS011;9585;51.018;4.282;2023-02-01T10:24:20;11.82;;;2.65;;
18905;SDS011;9585;51.018;4.282;2023-02-01T10:27:16;9.10;;;2.38;;
18905;SDS011;9585;51.018;4.282;2023-02-01T10:29:47;15.07;;;2.78;;
18905;SDS011;9585;51.018;4.282;2023-02-01T10:32:22;11.18;;;2.88;;
18905;SDS011;9585;51.018;4.282;2023-02-01T10:34:55;11.27;;;2.60;;
18905;SDS011;9585;51.018;4.282;2023-02-01T10:37:27;10.43;;;2.50;;
18905;SDS011;9585;51.018;4.282;2023-02-01T10:39:56;10.85;;;2.63;;
18905;SDS011;9585;51.018;4.282;2023-02-01T10:42:29;16.15;;;3.05;;
18905;SDS011;9585;51.018;4.282;2023-02-01T10:44:58;11.52;;;2.38;;
18905;SDS011;9585;51.018;4.282;2023-02-01T10:47:28;8.27;;;2.40;;
18905;SDS011;9585;51.018;4.282;2023-02-01T10:49:58;11.00;;;2.53;;
18905;SDS011;9585;51.018;4.282;2023-02-01T10:52:41;10.45;;;2.50;;
18905;SDS011;9585;51.018;4.282;2023-02-01T10:55:25;12.27;;;2.47;;
18905;SDS011;9585;51.018;4.282;2023-02-01T10:58:01;11.27;;;2.50;;
18905;SDS011;9585;51.018;4.282;2023-02-01T11:00:34;10.00;;;2.38;;
18905;SDS011;9585;51.018;4.282;2023-02-01T11:03:19;10.85;;;2.67;;
18905;SDS011;9585;51.018;4.282;2023-02-01T11:06:08;12.15;;;2.38;;
18905;SDS011;9585;51.018;4.282;2023-02-01T11:08:44;9.57;;;2.55;;
18905;SDS011;9585;51.018;4.282;2023-02-01T11:11:13;9.43;;;2.58;;
18905;SDS011;9585;51.018;4.282;2023-02-01T11:13:43;9.60;;;2.72;;
18905;SDS011;9585;51.018;4.282;2023-02-01T11:16:14;7.43;;;2.30;;
18905;SDS011;9585;51.018;4.282;2023-02-01T11:18:44;8.05;;;2.42;;
18905;SDS011;9585;51.018;4.282;2023-02-01T11:21:22;9.23;;;2.50;;
18905;SDS011;9585;51.018;4.282;2023-02-01T11:23:55;7.75;;;2.50;;
18905;SDS011;9585;51.018;4.282;2023-02-01T11:29:49;7.20;;;2.40;;
18905;SDS011;9585;51.018;4.282;2023-02-01T11:32:19;9.82;;;2.45;;
18905;SDS011;9585;51.018;4.282;2023-02-01T11:34:50;10.57;;;2.22;;
18905;SDS011;9585;51.018;4.282;2023-02-01T11:37:21;9.85;;;2.13;;
18905;SDS011;9585;51.018;4.282;2023-02-01T11:39:57;9.32;;;1.92;;
18905;SDS011;9585;51.018;4.282;2023-02-01T11:42:34;9.30;;;2.10;;
18905;SDS011;9585;51.018;4.282;2023-02-01T11:45:18;8.73;;;2.38;;
18905;SDS011;9585;51.018;4.282;2023-02-01T11:47:51;9.70;;;2.38;;
18905;SDS011;9585;51.018;4.282;2023-02-01T11:50:22;10.93;;;2.50;;
18905;SDS011;9585;51.018;4.282;2023-02-01T11:55:55;9.82;;;2.47;;
18905;SDS011;9585;51.018;4.282;2023-02-01T11:58:35;8.25;;;2.13;;
18905;SDS011;9585;51.018;4.282;2023-02-01T12:01:22;11.32;;;1.90;;
18905;SDS011;9585;51.018;4.282;2023-02-01T12:04:18;8.20;;;2.08;;
18905;SDS011;9585;51.018;4.282;2023-02-01T12:07:02;7.93;;;2.17;;
18905;SDS011;9585;51.018;4.282;2023-02-01T12:09:43;8.63;;;2.10;;
18905;SDS011;9585;51.018;4.282;2023-02-01T12:12:22;8.07;;;2.13;;
18905;SDS011;9585;51.018;4.282;2023-02-01T12:15:07;8.10;;;2.00;;
18905;SDS011;9585;51.018;4.282;2023-02-01T12:17:57;7.00;;;1.92;;
18905;SDS011;9585;51.018;4.282;2023-02-01T12:20:50;9.77;;;2.47;;
18905;SDS011;9585;51.018;4.282;2023-02-01T12:23:46;9.02;;;1.80;;
18905;SDS011;9585;51.018;4.282;2023-02-01T12:26:41;9.80;;;2.15;;
18905;SDS011;9585;51.018;4.282;2023-02-01T12:29:29;8.57;;;2.28;;
18905;SDS011;9585;51.018;4.282;2023-02-01T12:32:20;9.32;;;2.03;;
18905;SDS011;9585;51.018;4.282;2023-02-01T12:35:09;6.93;;;1.70;;
18905;SDS011;9585;51.018;4.282;2023-02-01T12:37:52;9.15;;;2.20;;
18905;SDS011;9585;51.018;4.282;2023-02-01T12:40:34;10.10;;;1.98;;
18905;SDS011;9585;51.018;4.282;2023-02-01T12:43:12;8.05;;;2.00;;
18905;SDS011;9585;51.018;4.282;2023-02-01T12:45:48;6.30;;;1.88;;
18905;SDS011;9585;51.018;4.282;2023-02-01T12:48:23;13.63;;;2.55;;
18905;SDS011;9585;51.018;4.282;2023-02-01T12:50:58;6.03;;;2.03;;
18905;SDS011;9585;51.018;4.282;2023-02-01T12:53:30;10.82;;;2.70;;
18905;SDS011;9585;51.018;4.282;2023-02-01T12:56:08;9.80;;;2.15;;
18905;SDS011;9585;51.018;4.282;2023-02-01T12:58:40;6.03;;;1.77;;
18905;SDS011;9585;51.018;4.282;2023-02-01T13:01:11;8.70;;;2.00;;
18905;SDS011;9585;51.018;4.282;2023-02-01T13:03:44;10.93;;;3.40;;
18905;SDS011;9585;51.018;4.282;2023-02-01T13:06:21;8.38;;;1.90;;
18905;SDS011;9585;51.018;4.282;2023-02-01T13:08:52;8.70;;;2.13;;
18905;SDS011;9585;51.018;4.282;2023-02-01T13:11:26;7.38;;;1.60;;
18905;SDS011;9585;51.018;4.282;2023-02-01T13:14:00;12.05;;;1.77;;
18905;SDS011;9585;51.018;4.282;2023-02-01T13:16:32;8.10;;;1.98;;
18905;SDS011;9585;51.018;4.282;2023-02-01T13:19:05;8.85;;;1.80;;
18905;SDS011;9585;51.018;4.282;2023-02-01T13:21:42;8.27;;;2.10;;
18905;SDS011;9585;51.018;4.282;2023-02-01T13:24:20;8.90;;;1.90;;
18905;SDS011;9585;51.018;4.282;2023-02-01T13:26:56;6.72;;;2.22;;
18905;SDS011;9585;51.018;4.282;2023-02-01T13:29:24;10.43;;;3.53;;
18905;SDS011;9585;51.018;4.282;2023-02-01T13:31:59;7.60;;;2.03;;
18905;SDS011;9585;51.018;4.282;2023-02-01T13:37:51;9.27;;;1.80;;
18905;SDS011;9585;51.018;4.282;2023-02-01T13:40:36;7.80;;;2.20;;
18905;SDS011;9585;51.018;4.282;2023-02-01T13:43:10;7.90;;;2.38;;
18905;SDS011;9585;51.018;4.282;2023-02-01T13:45:43;6.75;;;1.85;;
18905;SDS011;9585;51.018;4.282;2023-02-01T13:48:21;10.23;;;1.80;;
18905;SDS011;9585;51.018;4.282;2023-02-01T13:50:54;7.70;;;1.80;;
18905;SDS011;9585;51.018;4.282;2023-02-01T13:53:25;8.63;;;1.88;;
18905;SDS011;9585;51.018;4.282;2023-02-01T13:55:57;8.20;;;2.47;;
18905;SDS011;9585;51.018;4.282;2023-02-01T13:58:34;8.20;;;1.80;;
18905;SDS011;9585;51.018;4.282;2023-02-01T14:03:59;9.00;;;2.17;;
18905;SDS011;9585;51.018;4.282;2023-02-01T14:06:43;9.52;;;2.20;;
18905;SDS011;9585;51.018;4.282;2023-02-01T14:09:14;8.23;;;2.00;;
18905;SDS011;9585;51.018;4.282;2023-02-01T14:11:45;6.65;;;1.95;;
18905;SDS011;9585;51.018;4.282;2023-02-01T14:23:20;9.40;;;2.83;;
18905;SDS011;9585;51.018;4.282;2023-02-01T14:28:45;9.43;;;1.80;;
18905;SDS011;9585;51.018;4.282;2023-02-01T14:31:31;7.88;;;2.30;;
18905;SDS011;9585;51.018;4.282;2023-02-01T14:34:11;8.20;;;3.38;;
18905;SDS011;9585;51.018;4.282;2023-02-01T14:36:44;10.57;;;2.30;;
18905;SDS011;9585;51.018;4.282;2023-02-01T14:39:18;9.95;;;2.05;;
18905;SDS011;9585;51.018;4.282;2023-02-01T14:42:03;7.72;;;2.38;;
18905;SDS011;9585;51.018;4.282;2023-02-01T14:44:40;9.98;;;2.20;;
18905;SDS011;9585;51.018;4.282;2023-02-01T14:50:13;9.75;;;2.30;;
18905;SDS011;9585;51.018;4.282;2023-02-01T14:55:46;16.92;;;2.60;;
18905;SDS011;9585;51.018;4.282;2023-02-01T14:58:21;10.45;;;2.40;;
18905;SDS011;9585;51.018;4.282;2023-02-01T15:01:02;11.60;;;2.10;;
18905;SDS011;9585;51.018;4.282;2023-02-01T15:03:43;9.93;;;2.00;;
18905;SDS011;9585;51.018;4.282;2023-02-01T15:06:27;11.20;;;2.38;;
18905;SDS011;9585;51.018;4.282;2023-02-01T15:09:09;9.35;;;1.90;;
18905;SDS011;9585;51.018;4.282;2023-02-01T15:11:54;10.52;;;2.08;;
18905;SDS011;9585;51.018;4.282;2023-02-01T15:14:24;11.38;;;1.92;;
18905;SDS011;9585;51.018;4.282;2023-02-01T15:16:52;10.60;;;2.40;;
18905;SDS011;9585;51.018;4.282;2023-02-01T15:19:20;11.90;;;2.70;;
18905;SDS011;9585;51.018;4.282;2023-02-01T15:21:50;9.63;;;2.28;;
18905;SDS011;9585;51.018;4.282;2023-02-01T15:24:20;11.52;;;2.60;;
18905;SDS011;9585;51.018;4.282;2023-02-01T15:26:48;10.85;;;2.55;;
18905;SDS011;9585;51.018;4.282;2023-02-01T15:29:16;10.10;;;2.50;;
18905;SDS011;9585;51.018;4.282;2023-02-01T15:31:47;11.40;;;2.95;;
18905;SDS011;9585;51.018;4.282;2023-02-01T15:34:16;12.32;;;2.60;;
18905;SDS011;9585;51.018;4.282;2023-02-01T15:36:44;12.35;;;2.50;;
18905;SDS011;9585;51.018;4.282;2023-02-01T15:39:22;13.82;;;4.05;;
18905;SDS011;9585;51.018;4.282;2023-02-01T15:41:51;8.10;;;2.85;;
18905;SDS011;9585;51.018;4.282;2023-02-01T15:44:33;8.82;;;2.50;;
18905;SDS011;9585;51.018;4.282;2023-02-01T15:47:07;10.15;;;2.40;;
18905;SDS011;9585;51.018;4.282;2023-02-01T15:49:44;9.15;;;2.60;;
18905;SDS011;9585;51.018;4.282;2023-02-01T15:52:19;13.70;;;2.75;;
18905;SDS011;9585;51.018;4.282;2023-02-01T15:54:51;8.65;;;3.25;;
18905;SDS011;9585;51.018;4.282;2023-02-01T15:57:21;16.85;;;2.90;;
18905;SDS011;9585;51.018;4.282;2023-02-01T15:59:58;11.27;;;2.63;;
18905;SDS011;9585;51.018;4.282;2023-02-01T16:02:34;9.68;;;2.40;;
18905;SDS011;9585;51.018;4.282;2023-02-01T16:05:24;10.73;;;2.50;;
18905;SDS011;9585;51.018;4.282;2023-02-01T16:07:56;10.90;;;2.28;;
18905;SDS011;9585;51.018;4.282;2023-02-01T16:10:29;11.32;;;2.58;;